createdAt,value
2022-10-11T00:01:26.284Z,9.50
2022-10-11T00:03:57.651Z,9.55
2022-10-11T00:06:29.158Z,9.60
2022-10-11T00:09:00.705Z,9.64
2022-10-11T00:11:32.350Z,9.66
2022-10-11T00:14:03.771Z,9.67
2022-10-11T00:16:35.258Z,9.66
2022-10-11T00:19:06.819Z,9.64
2022-10-11T00:21:38.670Z,9.60
2022-10-11T00:24:12.010Z,9.54
2022-10-11T00:26:46.859Z,9.49
2022-10-11T00:29:18.965Z,9.42
2022-10-11T00:31:50.343Z,9.35
2022-10-11T00:34:21.768Z,9.33
2022-10-11T00:36:53.127Z,9.28
2022-10-11T00:39:24.648Z,9.22
2022-10-11T00:41:56.746Z,9.21
2022-10-11T00:44:30.319Z,9.22
2022-10-11T00:47:03.550Z,9.25
2022-10-11T00:49:41.949Z,9.29
2022-10-11T00:52:18.503Z,9.33
2022-10-11T00:54:51.316Z,9.34
2022-10-11T00:57:27.259Z,9.40
2022-10-11T00:59:59.769Z,9.44
2022-10-11T01:02:31.484Z,9.48
2022-10-11T01:05:27.555Z,9.49
2022-10-11T01:07:57.029Z,9.50
2022-10-11T01:10:28.891Z,9.50
2022-10-11T01:13:21.321Z,9.46
2022-10-11T01:16:00.461Z,9.47
2022-10-11T01:18:43.711Z,9.45
2022-10-11T01:21:27.236Z,9.43
2022-10-11T01:24:34.813Z,9.40
2022-10-11T01:27:40.877Z,9.37
2022-10-11T01:30:22.057Z,9.38
2022-10-11T01:33:06.514Z,9.42
2022-10-11T01:35:42.594Z,9.49
2022-10-11T01:38:22.947Z,9.55
2022-10-11T01:40:57.780Z,9.62
2022-10-11T01:43:30.058Z,9.66
2022-10-11T01:46:03.528Z,9.71
2022-10-11T01:48:33.760Z,9.73
2022-10-11T01:51:05.788Z,9.74
2022-10-11T01:54:00.732Z,9.73
2022-10-11T01:56:50.544Z,9.74
2022-10-11T01:59:34.282Z,9.72
2022-10-11T02:02:20.386Z,9.71
2022-10-11T02:04:58.975Z,9.69
2022-10-11T02:07:39.567Z,9.68
2022-10-11T02:10:16.996Z,9.68
2022-10-11T02:12:55.084Z,9.67
2022-10-11T02:15:31.701Z,9.66
2022-10-11T02:18:07.697Z,9.65
2022-10-11T02:20:42.436Z,9.68
2022-10-11T02:23:17.980Z,9.72
2022-10-11T02:25:51.163Z,9.78
2022-10-11T02:28:26.387Z,9.85
2022-10-11T02:31:01.107Z,9.93
2022-10-11T02:33:37.443Z,10.01
2022-10-11T02:36:17.537Z,10.06
2022-10-11T02:38:54.022Z,10.12
2022-10-11T02:41:31.086Z,10.14
2022-10-11T02:44:08.996Z,10.17
2022-10-11T02:46:42.748Z,10.18
2022-10-11T02:49:13.340Z,10.20
2022-10-11T02:51:44.847Z,10.21
2022-10-11T02:54:16.348Z,10.20
2022-10-11T02:56:47.800Z,10.21
2022-10-11T02:59:19.344Z,10.21
2022-10-11T03:01:50.787Z,10.20
2022-10-11T03:04:22.249Z,10.19
2022-10-11T03:06:53.615Z,10.18
2022-10-11T03:09:25.106Z,10.18
2022-10-11T03:11:56.533Z,10.19
2022-10-11T03:14:28.161Z,10.22
2022-10-11T03:17:17.185Z,10.26
2022-10-11T03:19:51.557Z,10.30
2022-10-11T03:22:23.335Z,10.30
2022-10-11T03:24:57.510Z,10.29
2022-10-11T03:27:32.558Z,10.27
2022-10-11T03:30:04.851Z,10.25
2022-10-11T03:32:36.238Z,10.23
2022-10-11T03:35:09.515Z,10.22
2022-10-11T03:37:41.045Z,10.22
2022-10-11T03:40:14.367Z,10.22
2022-10-11T03:42:45.755Z,10.18
2022-10-11T03:45:17.246Z,10.18
2022-10-11T03:47:48.656Z,10.15
2022-10-11T03:50:20.168Z,10.15
2022-10-11T03:52:51.825Z,10.17
2022-10-11T03:55:23.351Z,10.21
2022-10-11T03:57:54.798Z,10.28
2022-10-11T04:00:26.372Z,10.34
2022-10-11T04:02:57.911Z,10.42
2022-10-11T04:05:29.409Z,10.47
2022-10-11T04:08:00.853Z,10.49
2022-10-11T04:10:32.254Z,10.50
2022-10-11T04:13:04.243Z,10.49
2022-10-11T04:15:35.675Z,10.51
2022-10-11T04:18:07.575Z,10.50
2022-10-11T04:20:39.221Z,10.51
2022-10-11T04:23:10.868Z,10.51
2022-10-11T04:25:42.330Z,10.50
2022-10-11T04:28:13.879Z,10.48
2022-10-11T04:30:45.484Z,10.46
2022-10-11T04:33:16.996Z,10.47
2022-10-11T04:35:48.401Z,10.49
2022-10-11T04:38:19.885Z,10.52
2022-10-11T04:40:51.451Z,10.57
2022-10-11T04:43:23.104Z,10.64
2022-10-11T04:45:55.585Z,10.70
2022-10-11T04:48:27.297Z,10.74
2022-10-11T04:50:58.728Z,10.77
2022-10-11T04:53:30.460Z,10.79
2022-10-11T04:56:04.924Z,10.80
2022-10-11T04:58:37.874Z,10.80
2022-10-11T05:01:09.841Z,10.79
2022-10-11T05:03:41.301Z,10.76
2022-10-11T05:06:13.233Z,10.76
2022-10-11T05:08:45.115Z,10.73
2022-10-11T05:11:18.654Z,10.73
2022-10-11T05:13:50.121Z,10.76
2022-10-11T05:16:21.622Z,10.82
2022-10-11T05:18:53.036Z,10.85
2022-10-11T05:21:26.310Z,10.91
2022-10-11T05:23:58.665Z,10.94
2022-10-11T05:26:30.922Z,10.96
2022-10-11T05:29:02.390Z,10.97
2022-10-11T05:31:33.894Z,10.93
2022-10-11T05:34:05.462Z,10.95
2022-10-11T05:36:36.912Z,10.96
2022-10-11T05:39:08.674Z,10.97
2022-10-11T05:41:40.135Z,10.99
2022-10-11T05:44:11.693Z,10.99
2022-10-11T05:46:43.133Z,11.00
2022-10-11T05:49:14.584Z,11.02
2022-10-11T05:51:46.039Z,11.08
2022-10-11T05:54:17.499Z,11.15
2022-10-11T05:56:49.048Z,11.21
2022-10-11T05:59:20.458Z,11.27
2022-10-11T06:01:51.987Z,11.33
2022-10-11T06:04:23.502Z,11.37
2022-10-11T06:06:55.059Z,11.40
2022-10-11T06:09:26.436Z,11.44
2022-10-11T06:11:58.067Z,11.47
2022-10-11T06:14:29.836Z,11.48
2022-10-11T06:17:01.269Z,11.48
2022-10-11T06:19:32.736Z,11.48
2022-10-11T06:22:04.237Z,11.47
2022-10-11T06:24:35.590Z,11.48
2022-10-11T06:27:08.145Z,11.52
2022-10-11T06:29:39.989Z,11.56
2022-10-11T06:32:13.315Z,11.61
2022-10-11T06:34:44.726Z,11.66
2022-10-11T06:37:16.327Z,11.69
2022-10-11T06:39:47.737Z,11.72
2022-10-11T06:42:19.190Z,11.74
2022-10-11T06:44:50.648Z,11.75
2022-10-11T06:47:22.032Z,11.77
2022-10-11T06:49:53.436Z,11.79
2022-10-11T06:52:24.924Z,11.79
2022-10-11T06:54:56.320Z,11.84
2022-10-11T06:57:28.785Z,11.89
2022-10-11T07:00:00.399Z,11.97
2022-10-11T07:02:31.845Z,12.04
2022-10-11T07:05:03.292Z,12.13
2022-10-11T07:07:34.648Z,12.23
2022-10-11T07:10:07.204Z,12.35
2022-10-11T07:12:38.780Z,12.55
2022-10-11T07:15:12.932Z,12.74
2022-10-11T07:17:44.350Z,12.93
2022-10-11T07:20:16.007Z,13.07
2022-10-11T07:22:47.469Z,13.22
2022-10-11T07:25:19.022Z,13.38
2022-10-11T07:27:50.415Z,13.61
2022-10-11T07:30:22.131Z,14.01
2022-10-11T07:32:53.524Z,14.48
2022-10-11T07:35:25.543Z,14.96
2022-10-11T07:37:56.955Z,15.17
2022-10-11T07:40:28.659Z,15.14
2022-10-11T07:43:00.993Z,15.00
2022-10-11T07:45:32.576Z,14.94
2022-10-11T07:48:03.954Z,14.91
2022-10-11T07:50:35.690Z,14.91
2022-10-11T07:53:07.122Z,14.88
2022-10-11T07:55:40.293Z,14.82
2022-10-11T07:58:13.328Z,14.78
2022-10-11T08:00:44.744Z,14.83
2022-10-11T08:03:16.229Z,15.00
2022-10-11T08:05:47.655Z,15.30
2022-10-11T08:08:19.118Z,16.15
2022-10-11T08:10:50.706Z,16.86
2022-10-11T08:13:22.114Z,17.19
2022-10-11T08:15:54.049Z,17.88
2022-10-11T08:18:25.966Z,18.04
2022-10-11T08:20:57.436Z,17.87
2022-10-11T08:23:28.976Z,17.52
2022-10-11T08:26:00.727Z,17.17
2022-10-11T08:28:32.655Z,16.84
2022-10-11T08:31:04.770Z,16.47
2022-10-11T08:33:36.226Z,16.15
2022-10-11T08:36:10.213Z,15.88
2022-10-11T08:38:43.222Z,15.68
2022-10-11T08:41:30.572Z,15.51
2022-10-11T08:44:15.521Z,15.35
2022-10-11T08:46:56.920Z,15.21
2022-10-11T08:49:34.611Z,15.11
2022-10-11T08:52:12.408Z,15.16
2022-10-11T08:54:49.485Z,15.27
2022-10-11T08:57:23.866Z,15.33
2022-10-11T08:59:57.744Z,15.39
2022-10-11T09:03:06.868Z,15.40
2022-10-11T09:05:40.759Z,15.33
2022-10-11T09:08:22.239Z,15.25
2022-10-11T09:11:05.683Z,15.14
2022-10-11T09:13:58.846Z,15.10
2022-10-11T09:16:40.324Z,15.06
2022-10-11T09:19:33.347Z,15.07
2022-10-11T09:22:15.998Z,15.01
2022-10-11T09:25:01.563Z,14.99
2022-10-11T09:28:01.149Z,15.04
2022-10-11T09:30:29.058Z,15.07
2022-10-11T09:33:11.888Z,15.06
2022-10-11T09:35:47.547Z,14.98
2022-10-11T09:38:36.711Z,14.87
2022-10-11T09:41:16.253Z,14.82
2022-10-11T09:43:51.487Z,14.84
2022-10-11T09:46:30.822Z,14.79
2022-10-11T09:49:04.948Z,14.73
2022-10-11T09:51:35.486Z,14.67
2022-10-11T09:54:10.512Z,14.64
2022-10-11T09:56:46.623Z,14.56
2022-10-11T09:59:30.685Z,14.54
2022-10-11T10:02:24.709Z,14.43
2022-10-11T10:05:05.403Z,14.42
2022-10-11T10:07:39.520Z,14.52
2022-10-11T10:10:29.588Z,14.64
2022-10-11T10:13:03.932Z,14.64
2022-10-11T10:15:38.050Z,14.64
2022-10-11T10:18:19.938Z,14.66
2022-10-11T10:20:55.849Z,14.68
2022-10-11T10:23:31.413Z,14.68
2022-10-11T10:26:18.866Z,14.72
2022-10-11T10:29:03.379Z,14.74
2022-10-11T10:32:01.932Z,14.71
2022-10-11T10:34:35.183Z,14.66
2022-10-11T10:37:14.211Z,14.61
2022-10-11T10:39:49.363Z,14.60
2022-10-11T10:42:22.359Z,14.59
2022-10-11T10:44:58.722Z,14.55
2022-10-11T10:47:46.144Z,14.55
2022-10-11T10:50:24.599Z,14.57
2022-10-11T10:53:15.458Z,14.63
2022-10-11T10:55:52.867Z,14.71
2022-10-11T10:58:43.446Z,14.71
2022-10-11T11:01:21.908Z,14.72
2022-10-11T11:03:58.935Z,14.76
2022-10-11T11:06:37.783Z,14.79
2022-10-11T11:09:29.395Z,14.82
2022-10-11T11:12:15.187Z,14.89
2022-10-11T11:14:56.567Z,14.93
2022-10-11T11:17:40.717Z,14.88
2022-10-11T11:20:22.705Z,14.88
2022-10-11T11:23:02.108Z,14.90
2022-10-11T11:25:44.885Z,14.92
2022-10-11T11:28:42.611Z,14.90
2022-10-11T11:31:27.393Z,15.02
2022-10-11T11:34:06.320Z,15.56
2022-10-11T11:36:46.992Z,16.06
2022-10-11T11:39:21.849Z,16.50
2022-10-11T11:41:59.423Z,16.64
2022-10-11T11:44:37.122Z,17.48
2022-10-11T11:47:13.377Z,17.78
2022-10-11T11:49:49.336Z,18.26
2022-10-11T11:52:28.032Z,19.69
2022-10-11T11:55:06.544Z,21.21
2022-10-11T11:57:54.943Z,23.23
2022-10-11T12:00:30.891Z,25.01
2022-10-11T12:03:04.859Z,26.18
2022-10-11T12:05:37.946Z,26.83
2022-10-11T12:08:25.849Z,27.52
2022-10-11T12:11:04.448Z,27.95
2022-10-11T12:13:38.917Z,27.96
2022-10-11T12:16:15.599Z,27.86
2022-10-11T12:19:02.051Z,27.82
2022-10-11T12:21:36.051Z,28.06
2022-10-11T12:24:23.594Z,28.46
2022-10-11T12:26:58.651Z,29.21
2022-10-11T12:29:49.743Z,29.77
2022-10-11T12:32:52.128Z,30.13
2022-10-11T12:35:48.649Z,30.02
2022-10-11T12:38:23.386Z,29.07
2022-10-11T12:40:57.248Z,28.30
2022-10-11T12:43:57.301Z,27.77
2022-10-11T12:46:58.829Z,27.62
2022-10-11T12:49:42.024Z,27.70
2022-10-11T12:52:30.360Z,26.69
2022-10-11T12:55:31.300Z,25.48
2022-10-11T12:58:30.117Z,24.30
2022-10-11T13:01:35.617Z,23.33
2022-10-11T13:04:10.974Z,22.49
2022-10-11T13:06:49.499Z,21.85
2022-10-11T13:09:29.754Z,21.34
2022-10-11T13:12:05.513Z,20.84
2022-10-11T13:14:43.621Z,20.33
2022-10-11T13:17:21.946Z,19.91
2022-10-11T13:20:02.830Z,19.58
2022-10-11T13:22:39.378Z,19.32
2022-10-11T13:25:16.069Z,19.06
2022-10-11T13:27:49.251Z,18.86
2022-10-11T13:30:26.031Z,18.65
2022-10-11T13:32:58.959Z,18.48
2022-10-11T13:35:34.535Z,18.34
2022-10-11T13:38:10.388Z,18.19
2022-10-11T13:40:42.074Z,18.02
2022-10-11T13:43:15.932Z,17.88
2022-10-11T13:45:47.744Z,17.71
2022-10-11T13:48:19.554Z,17.45
2022-10-11T13:51:07.888Z,17.22
2022-10-11T13:53:39.412Z,17.00
2022-10-11T13:56:12.629Z,16.82
2022-10-11T13:58:48.589Z,16.69
2022-10-11T14:01:23.354Z,16.56
2022-10-11T14:04:00.424Z,16.44
2022-10-11T14:06:44.213Z,16.31
2022-10-11T14:09:27.755Z,16.20
2022-10-11T14:12:33.243Z,16.09
2022-10-11T14:15:06.303Z,15.99
2022-10-11T14:17:44.835Z,15.88
2022-10-11T14:20:21.192Z,15.76
2022-10-11T14:22:55.089Z,15.64
2022-10-11T14:25:26.624Z,15.55
2022-10-11T14:27:58.551Z,15.48
2022-10-11T14:30:31.930Z,15.41
2022-10-11T14:33:04.020Z,15.33
2022-10-11T14:35:35.621Z,15.25
2022-10-11T14:38:07.169Z,15.14
2022-10-11T14:40:38.589Z,15.04
2022-10-11T14:43:10.105Z,14.96
2022-10-11T14:45:41.659Z,14.87
2022-10-11T14:48:13.274Z,14.79
2022-10-11T14:50:48.124Z,14.71
2022-10-11T14:53:19.645Z,14.62
2022-10-11T14:55:51.239Z,14.53
2022-10-11T14:58:22.670Z,14.47
2022-10-11T15:00:54.126Z,14.39
2022-10-11T15:03:25.683Z,14.31
2022-10-11T15:05:57.249Z,14.22
2022-10-11T15:08:28.805Z,14.15
2022-10-11T15:11:00.361Z,14.07
2022-10-11T15:13:32.012Z,14.00
2022-10-11T15:16:03.827Z,13.92
2022-10-11T15:18:35.639Z,13.84
2022-10-11T15:21:07.920Z,13.77
2022-10-11T15:23:39.324Z,13.70
2022-10-11T15:26:14.543Z,13.62
2022-10-11T15:28:46.704Z,13.54
2022-10-11T15:31:18.907Z,13.46
2022-10-11T15:33:51.077Z,13.37
2022-10-11T15:36:24.133Z,13.29
2022-10-11T15:38:55.548Z,13.21
2022-10-11T15:41:27.325Z,13.12
2022-10-11T15:43:58.750Z,13.03
2022-10-11T15:46:30.206Z,12.95
2022-10-11T15:49:06.536Z,12.86
2022-10-11T15:51:38.275Z,12.77
2022-10-11T15:54:10.121Z,12.68
2022-10-11T15:56:41.595Z,12.59
2022-10-11T15:59:13.340Z,12.49
2022-10-11T16:01:44.973Z,12.41
2022-10-11T16:04:16.449Z,12.32
2022-10-11T16:06:48.100Z,12.23
2022-10-11T16:09:19.617Z,12.14
2022-10-11T16:11:51.057Z,12.05
2022-10-11T16:14:22.480Z,11.95
2022-10-11T16:16:53.958Z,11.84
2022-10-11T16:19:25.396Z,11.74
2022-10-11T16:21:56.929Z,11.63
2022-10-11T16:24:28.366Z,11.52
2022-10-11T16:26:59.770Z,11.43
2022-10-11T16:29:31.585Z,11.33
2022-10-11T16:32:03.148Z,11.24
2022-10-11T16:34:35.409Z,11.14
2022-10-11T16:37:06.863Z,11.05
2022-10-11T16:39:38.327Z,10.95
2022-10-11T16:42:09.752Z,10.85
2022-10-11T16:44:41.751Z,10.77
2022-10-11T16:47:13.300Z,10.67
2022-10-11T16:49:46.023Z,10.58
2022-10-11T16:52:18.047Z,10.48
2022-10-11T16:54:49.977Z,10.38
2022-10-11T16:57:21.768Z,10.29
2022-10-11T16:59:53.530Z,10.17
2022-10-11T17:02:32.088Z,10.09
2022-10-11T17:05:04.209Z,10.01
2022-10-11T17:07:37.208Z,9.93
2022-10-11T17:10:10.697Z,9.83
2022-10-11T17:12:46.524Z,9.71
2022-10-11T17:15:22.045Z,9.65
2022-10-11T17:17:56.231Z,9.57
2022-10-11T17:20:27.697Z,9.49
2022-10-11T17:22:59.231Z,9.43
2022-10-11T17:25:30.815Z,9.36
2022-10-11T17:28:02.456Z,9.32
2022-10-11T17:30:34.011Z,9.25
2022-10-11T17:33:06.169Z,9.21
2022-10-11T17:35:37.591Z,9.19
2022-10-11T17:38:09.072Z,9.16
2022-10-11T17:40:40.524Z,9.14
2022-10-11T17:43:12.088Z,9.12
2022-10-11T17:45:43.521Z,9.12
2022-10-11T17:48:14.982Z,9.08
2022-10-11T17:50:50.505Z,9.02
2022-10-11T17:53:22.499Z,8.95
2022-10-11T17:55:54.402Z,8.89
2022-10-11T17:58:27.041Z,8.80
2022-10-11T18:01:04.621Z,8.72
2022-10-11T18:03:37.029Z,8.66
2022-10-11T18:06:10.684Z,8.60
2022-10-11T18:08:41.503Z,8.54
2022-10-11T18:11:16.898Z,8.47
2022-10-11T18:13:50.547Z,8.39
2022-10-11T18:16:24.113Z,8.33
2022-10-11T18:18:57.488Z,8.28
2022-10-11T18:21:34.363Z,8.20
2022-10-11T18:24:10.875Z,8.13
2022-10-11T18:26:42.717Z,8.06
2022-10-11T18:29:15.099Z,7.99
2022-10-11T18:31:46.950Z,7.93
2022-10-11T18:34:18.379Z,7.87
2022-10-11T18:36:49.865Z,7.81
2022-10-11T18:39:22.163Z,7.77
2022-10-11T18:41:53.665Z,7.75
2022-10-11T18:44:25.439Z,7.78
2022-10-11T18:46:56.841Z,7.79
2022-10-11T18:49:28.558Z,7.79
2022-10-11T18:52:00.818Z,7.82
2022-10-11T18:54:35.236Z,7.79
2022-10-11T18:57:06.799Z,7.73
2022-10-11T18:59:38.504Z,7.71
2022-10-11T19:02:11.402Z,7.66
2022-10-11T19:04:42.887Z,7.61
2022-10-11T19:07:14.290Z,7.54
2022-10-11T19:09:47.125Z,7.47
2022-10-11T19:12:19.306Z,7.40
2022-10-11T19:14:51.359Z,7.32
2022-10-11T19:17:23.047Z,7.24
2022-10-11T19:19:54.864Z,7.15
2022-10-11T19:22:26.418Z,7.09
2022-10-11T19:24:57.839Z,7.04
2022-10-11T19:27:29.440Z,6.97
2022-10-11T19:30:01.403Z,6.91
2022-10-11T19:32:32.943Z,6.85
2022-10-11T19:35:04.506Z,6.82
2022-10-11T19:37:35.976Z,6.80
2022-10-11T19:40:09.834Z,6.79
2022-10-11T19:42:41.311Z,6.81
2022-10-11T19:45:13.442Z,6.80
2022-10-11T19:47:44.847Z,6.82
2022-10-11T19:50:16.526Z,6.83
2022-10-11T19:52:47.970Z,6.81
2022-10-11T19:55:19.397Z,6.79
2022-10-11T19:57:50.819Z,6.77
2022-10-11T20:00:22.514Z,6.72
2022-10-11T20:02:53.843Z,6.68
2022-10-11T20:05:25.309Z,6.60
2022-10-11T20:07:56.690Z,6.54
2022-10-11T20:10:28.195Z,6.47
2022-10-11T20:12:59.757Z,6.42
2022-10-11T20:15:31.141Z,6.38
2022-10-11T20:18:02.539Z,6.31
2022-10-11T20:20:33.997Z,6.25
2022-10-11T20:23:05.461Z,6.19
2022-10-11T20:25:36.876Z,6.14
2022-10-11T20:28:08.482Z,6.08
2022-10-11T20:30:44.402Z,6.04
2022-10-11T20:33:15.769Z,6.03
2022-10-11T20:35:57.145Z,6.02
2022-10-11T20:38:29.412Z,6.05
2022-10-11T20:41:05.592Z,6.08
2022-10-11T20:43:37.177Z,6.11
2022-10-11T20:46:10.681Z,6.12
2022-10-11T20:48:42.808Z,6.12
2022-10-11T20:51:14.247Z,6.12
2022-10-11T20:53:45.706Z,6.07
2022-10-11T20:56:19.414Z,6.04
2022-10-11T20:58:51.303Z,6.01
2022-10-11T21:01:24.237Z,5.96
2022-10-11T21:03:57.862Z,5.90
2022-10-11T21:06:28.177Z,5.81
2022-10-11T21:09:00.344Z,5.74
2022-10-11T21:11:33.505Z,5.68
2022-10-11T21:14:07.184Z,5.60
2022-10-11T21:16:38.607Z,5.53
2022-10-11T21:19:13.214Z,5.45
2022-10-11T21:21:50.968Z,5.37
2022-10-11T21:24:24.948Z,5.29
2022-10-11T21:27:00.473Z,5.22
2022-10-11T21:29:32.376Z,5.15
2022-10-11T21:32:03.897Z,5.12
2022-10-11T21:34:35.357Z,5.10
2022-10-11T21:37:06.894Z,5.09
2022-10-11T21:39:38.357Z,5.10
2022-10-11T21:42:09.763Z,5.15
2022-10-11T21:44:43.454Z,5.18
2022-10-11T21:47:13.522Z,5.18
2022-10-11T21:49:47.866Z,5.21
2022-10-11T21:52:19.254Z,5.18
2022-10-11T21:54:50.741Z,5.17
2022-10-11T21:57:22.201Z,5.14
2022-10-11T21:59:53.655Z,5.10
2022-10-11T22:02:28.173Z,5.09
2022-10-11T22:04:59.726Z,5.09
2022-10-11T22:07:31.301Z,5.07
2022-10-11T22:10:02.857Z,5.02
2022-10-11T22:12:34.804Z,4.97
2022-10-11T22:15:08.363Z,4.94
2022-10-11T22:17:39.932Z,4.89
2022-10-11T22:20:16.861Z,4.84
2022-10-11T22:22:48.485Z,4.80
2022-10-11T22:25:20.165Z,4.78
2022-10-11T22:27:51.667Z,4.74
2022-10-11T22:30:23.650Z,4.74
2022-10-11T22:32:55.239Z,4.73
2022-10-11T22:35:27.010Z,4.77
2022-10-11T22:37:58.618Z,4.77
2022-10-11T22:40:30.183Z,4.78
2022-10-11T22:43:02.037Z,4.81
2022-10-11T22:45:33.670Z,4.85
2022-10-11T22:48:05.531Z,4.89
2022-10-11T22:50:37.220Z,4.89
2022-10-11T22:53:09.243Z,4.89
2022-10-11T22:55:41.253Z,4.86
2022-10-11T22:58:12.841Z,4.83
2022-10-11T23:00:44.902Z,4.82
